Benton Ridge, Ohio
Current Conditions -  °F | °C
As of 5:53 AM on Friday 31 Oct 2014 (Local Time) from KFDY Reporting Station
Overcast Overcast  
Wind Chill:   Ceiling: 4100
Heat Index:   Visibility: 10mi
Dew Point:   Wind: 7mph
Humidity: 73%   Direction: 210°SSW
Pressure: 29.94"   Gusts: NA
Location:  41°N, 83.79°W
Report Text: KFDY 310953Z AUTO 21006KT 10SM BKN041 OVC050 07/02 A2994 RMK AO2 SLP139 T00670022
Loading
Personal Weather Stations






























Interactive Weather Map
Tropical Storm Tracking
New forecast layout! Learn more

10-Day Weather Forecast

Advertisements
Track Severe Weather on mobile